sensor_id;sensor_type;location;lat;lon;timestamp;pressure;altitude;pressure_sealevel;temperature;humidity
56040;BME280;43937;41.366;2.072;2024-03-17T00:01:49;101524.47;;;15.88;72.27
56040;BME280;43937;41.366;2.072;2024-03-17T00:04:15;101552.84;;;16.03;72.13
56040;BME280;43937;41.366;2.072;2024-03-17T00:06:40;101526.00;;;15.91;72.28
56040;BME280;43937;41.366;2.072;2024-03-17T00:09:05;101557.44;;;16.11;72.00
56040;BME280;43937;41.366;2.072;2024-03-17T00:11:35;101547.22;;;15.97;72.27
56040;BME280;43937;41.366;2.072;2024-03-17T00:14:01;101548.97;;;15.98;72.68
56040;BME280;43937;41.366;2.072;2024-03-17T00:16:27;101540.56;;;15.91;72.33
56040;BME280;43937;41.366;2.072;2024-03-17T00:18:53;101536.69;;;16.09;72.06
56040;BME280;43937;41.366;2.072;2024-03-17T00:21:18;101528.44;;;16.09;72.11
56040;BME280;43937;41.366;2.072;2024-03-17T00:23:47;101516.66;;;16.00;71.86
56040;BME280;43937;41.366;2.072;2024-03-17T00:26:12;101509.00;;;15.95;72.70
56040;BME280;43937;41.366;2.072;2024-03-17T00:28:37;101533.31;;;16.21;72.02
56040;BME280;43937;41.366;2.072;2024-03-17T00:31:05;101534.78;;;16.32;71.46
56040;BME280;43937;41.366;2.072;2024-03-17T00:33:30;101538.69;;;16.15;71.91
56040;BME280;43937;41.366;2.072;2024-03-17T00:35:55;101547.47;;;15.87;72.91
56040;BME280;43937;41.366;2.072;2024-03-17T00:38:21;101526.59;;;15.78;73.49
56040;BME280;43937;41.366;2.072;2024-03-17T00:40:49;101499.53;;;15.75;73.42
56040;BME280;43937;41.366;2.072;2024-03-17T00:43:15;101493.00;;;15.45;74.66
56040;BME280;43937;41.366;2.072;2024-03-17T00:45:41;101504.41;;;15.88;73.95
56040;BME280;43937;41.366;2.072;2024-03-17T00:48:06;101519.88;;;16.03;72.82
56040;BME280;43937;41.366;2.072;2024-03-17T00:50:32;101497.56;;;16.07;72.64
56040;BME280;43937;41.366;2.072;2024-03-17T00:52:58;101504.09;;;16.06;72.82
56040;BME280;43937;41.366;2.072;2024-03-17T00:55:23;101489.34;;;16.21;71.86
56040;BME280;43937;41.366;2.072;2024-03-17T00:57:48;101457.13;;;16.15;71.81
56040;BME280;43937;41.366;2.072;2024-03-17T01:00:14;101487.81;;;16.57;70.48
56040;BME280;43937;41.366;2.072;2024-03-17T01:02:40;101467.34;;;16.59;69.83
56040;BME280;43937;41.366;2.072;2024-03-17T01:05:06;101490.56;;;16.57;70.19
56040;BME280;43937;41.366;2.072;2024-03-17T01:07:33;101484.19;;;16.41;71.18
56040;BME280;43937;41.366;2.072;2024-03-17T01:09:58;101461.41;;;16.18;71.46
56040;BME280;43937;41.366;2.072;2024-03-17T01:12:25;101473.97;;;16.35;71.34
56040;BME280;43937;41.366;2.072;2024-03-17T01:14:51;101438.22;;;16.20;71.15
56040;BME280;43937;41.366;2.072;2024-03-17T01:17:16;101476.72;;;16.50;70.38
56040;BME280;43937;41.366;2.072;2024-03-17T01:19:44;101498.06;;;16.63;70.72
56040;BME280;43937;41.366;2.072;2024-03-17T01:22:09;101500.16;;;16.46;70.96
56040;BME280;43937;41.366;2.072;2024-03-17T01:24:35;101488.38;;;16.37;71.25
56040;BME280;43937;41.366;2.072;2024-03-17T01:27:00;101468.25;;;16.22;71.03
56040;BME280;43937;41.366;2.072;2024-03-17T01:29:26;101486.00;;;16.34;71.68
56040;BME280;43937;41.366;2.072;2024-03-17T01:31:52;101476.47;;;16.07;72.65
56040;BME280;43937;41.366;2.072;2024-03-17T01:34:22;101486.94;;;16.03;73.69
56040;BME280;43937;41.366;2.072;2024-03-17T01:36:47;101475.03;;;15.88;74.07
56040;BME280;43937;41.366;2.072;2024-03-17T01:39:13;101480.72;;;16.10;74.06
56040;BME280;43937;41.366;2.072;2024-03-17T01:41:38;101444.84;;;16.11;72.91
56040;BME280;43937;41.366;2.072;2024-03-17T01:44:04;101492.75;;;16.46;72.57
56040;BME280;43937;41.366;2.072;2024-03-17T01:46:30;101481.81;;;16.38;72.89
56040;BME280;43937;41.366;2.072;2024-03-17T01:48:55;101478.72;;;16.41;72.68
56040;BME280;43937;41.366;2.072;2024-03-17T01:51:21;101468.47;;;16.35;72.76
56040;BME280;43937;41.366;2.072;2024-03-17T01:53:47;101432.81;;;16.27;72.49
56040;BME280;43937;41.366;2.072;2024-03-17T01:56:13;101437.09;;;16.30;72.86
56040;BME280;43937;41.366;2.072;2024-03-17T01:58:43;101458.16;;;16.37;72.96
56040;BME280;43937;41.366;2.072;2024-03-17T02:01:09;101424.19;;;16.15;73.34
56040;BME280;43937;41.366;2.072;2024-03-17T02:03:35;101456.53;;;16.28;73.64
56040;BME280;43937;41.366;2.072;2024-03-17T02:06:00;101438.84;;;16.08;74.07
56040;BME280;43937;41.366;2.072;2024-03-17T02:08:26;101454.66;;;16.06;74.88
56040;BME280;43937;41.366;2.072;2024-03-17T02:10:53;101435.44;;;16.06;74.59
56040;BME280;43937;41.366;2.072;2024-03-17T02:13:20;101440.44;;;16.02;74.96
56040;BME280;43937;41.366;2.072;2024-03-17T02:15:46;101432.91;;;15.81;76.06
56040;BME280;43937;41.366;2.072;2024-03-17T02:18:11;101427.00;;;15.92;76.54
56040;BME280;43937;41.366;2.072;2024-03-17T02:20:37;101424.69;;;16.19;75.25
56040;BME280;43937;41.366;2.072;2024-03-17T02:23:22;101425.16;;;16.22;74.65
56040;BME280;43937;41.366;2.072;2024-03-17T02:25:51;101386.56;;;15.86;74.92
56040;BME280;43937;41.366;2.072;2024-03-17T02:28:17;101379.34;;;15.85;75.97
56040;BME280;43937;41.366;2.072;2024-03-17T02:30:42;101411.84;;;15.96;76.01
56040;BME280;43937;41.366;2.072;2024-03-17T02:33:07;101406.19;;;15.98;76.08
56040;BME280;43937;41.366;2.072;2024-03-17T02:35:33;101402.56;;;15.97;75.86
56040;BME280;43937;41.366;2.072;2024-03-17T02:37:58;101399.69;;;15.91;76.49
56040;BME280;43937;41.366;2.072;2024-03-17T02:40:24;101371.78;;;15.87;76.49
56040;BME280;43937;41.366;2.072;2024-03-17T02:42:49;101378.44;;;16.08;75.58
56040;BME280;43937;41.366;2.072;2024-03-17T02:45:15;101384.31;;;16.05;76.03
56040;BME280;43937;41.366;2.072;2024-03-17T02:47:42;101389.81;;;16.05;75.98
56040;BME280;43937;41.366;2.072;2024-03-17T02:50:08;101353.59;;;15.86;75.78
56040;BME280;43937;41.366;2.072;2024-03-17T02:52:34;101377.63;;;15.84;76.09
56040;BME280;43937;41.366;2.072;2024-03-17T02:55:00;101365.53;;;15.93;75.65
56040;BME280;43937;41.366;2.072;2024-03-17T02:57:26;101383.94;;;16.08;76.10
56040;BME280;43937;41.366;2.072;2024-03-17T02:59:55;101344.16;;;15.89;75.49
56040;BME280;43937;41.366;2.072;2024-03-17T03:02:21;101371.88;;;15.94;75.69
56040;BME280;43937;41.366;2.072;2024-03-17T03:04:46;101373.47;;;15.88;76.23
56040;BME280;43937;41.366;2.072;2024-03-17T03:07:12;101343.75;;;15.54;77.00
56040;BME280;43937;41.366;2.072;2024-03-17T03:09:37;101366.19;;;15.80;76.70
56040;BME280;43937;41.366;2.072;2024-03-17T03:12:03;101369.59;;;15.83;76.88
56040;BME280;43937;41.366;2.072;2024-03-17T03:14:29;101340.22;;;15.68;76.87
56040;BME280;43937;41.366;2.072;2024-03-17T03:16:55;101357.50;;;16.07;75.64
56040;BME280;43937;41.366;2.072;2024-03-17T03:19:20;101348.53;;;16.13;75.18
56040;BME280;43937;41.366;2.072;2024-03-17T03:21:46;101340.94;;;16.15;75.14
56040;BME280;43937;41.366;2.072;2024-03-17T03:24:13;101308.19;;;15.98;73.65
56040;BME280;43937;41.366;2.072;2024-03-17T03:26:39;101311.88;;;16.06;73.28
56040;BME280;43937;41.366;2.072;2024-03-17T03:29:04;101362.53;;;16.18;73.97
56040;BME280;43937;41.366;2.072;2024-03-17T03:31:32;101351.91;;;16.00;74.85
56040;BME280;43937;41.366;2.072;2024-03-17T03:33:57;101324.53;;;15.77;75.14
56040;BME280;43937;41.366;2.072;2024-03-17T03:36:26;101343.41;;;15.95;75.38
56040;BME280;43937;41.366;2.072;2024-03-17T03:38:52;101322.94;;;15.97;74.07
56040;BME280;43937;41.366;2.072;2024-03-17T03:41:18;101300.19;;;15.74;74.42
56040;BME280;43937;41.366;2.072;2024-03-17T03:43:44;101346.72;;;16.20;73.59
56040;BME280;43937;41.366;2.072;2024-03-17T03:46:11;101346.72;;;16.05;73.64
56040;BME280;43937;41.366;2.072;2024-03-17T03:48:37;101292.28;;;15.56;74.82
56040;BME280;43937;41.366;2.072;2024-03-17T03:51:06;101343.84;;;15.84;74.99
56040;BME280;43937;41.366;2.072;2024-03-17T03:53:33;101341.78;;;15.63;75.58
56040;BME280;43937;41.366;2.072;2024-03-17T03:56:00;101343.97;;;15.67;75.62
56040;BME280;43937;41.366;2.072;2024-03-17T03:58:27;101306.44;;;15.45;76.18
56040;BME280;43937;41.366;2.072;2024-03-17T04:00:54;101351.31;;;15.75;76.21
56040;BME280;43937;41.366;2.072;2024-03-17T04:03:20;101350.50;;;15.66;76.18
56040;BME280;43937;41.366;2.072;2024-03-17T04:05:46;101321.03;;;15.60;76.06
56040;BME280;43937;41.366;2.072;2024-03-17T04:08:11;101359.19;;;15.93;75.27
56040;BME280;43937;41.366;2.072;2024-03-17T04:10:36;101326.00;;;15.65;75.87
56040;BME280;43937;41.366;2.072;2024-03-17T04:13:02;101350.16;;;15.69;76.26
56040;BME280;43937;41.366;2.072;2024-03-17T04:15:28;101338.72;;;15.80;75.73
56040;BME280;43937;41.366;2.072;2024-03-17T04:17:54;101331.44;;;15.88;75.30
56040;BME280;43937;41.366;2.072;2024-03-17T04:20:19;101337.72;;;15.96;74.74
56040;BME280;43937;41.366;2.072;2024-03-17T04:22:44;101292.63;;;15.76;74.74
56040;BME280;43937;41.366;2.072;2024-03-17T04:25:11;101324.66;;;15.98;74.61
56040;BME280;43937;41.366;2.072;2024-03-17T04:27:37;101332.31;;;16.03;75.06
56040;BME280;43937;41.366;2.072;2024-03-17T04:30:03;101329.56;;;16.18;74.15
56040;BME280;43937;41.366;2.072;2024-03-17T04:32:31;101342.66;;;16.16;73.84
56040;BME280;43937;41.366;2.072;2024-03-17T04:34:57;101340.66;;;15.95;74.45
56040;BME280;43937;41.366;2.072;2024-03-17T04:37:22;101314.31;;;15.86;74.40
56040;BME280;43937;41.366;2.072;2024-03-17T04:39:55;101310.81;;;15.77;74.51
56040;BME280;43937;41.366;2.072;2024-03-17T04:42:23;101347.28;;;15.86;74.79
56040;BME280;43937;41.366;2.072;2024-03-17T04:44:48;101320.84;;;15.85;74.96
56040;BME280;43937;41.366;2.072;2024-03-17T04:47:14;101305.03;;;15.87;74.20
56040;BME280;43937;41.366;2.072;2024-03-17T04:49:40;101333.75;;;16.14;73.67
56040;BME280;43937;41.366;2.072;2024-03-17T04:52:07;101342.66;;;16.16;73.95
56040;BME280;43937;41.366;2.072;2024-03-17T04:54:33;101353.16;;;16.27;73.81
56040;BME280;43937;41.366;2.072;2024-03-17T04:56:59;101325.59;;;16.20;72.83
56040;BME280;43937;41.366;2.072;2024-03-17T04:59:24;101319.94;;;16.22;72.26
56040;BME280;43937;41.366;2.072;2024-03-17T05:01:50;101366.22;;;16.69;71.64
56040;BME280;43937;41.366;2.072;2024-03-17T05:04:16;101362.72;;;16.61;71.42
56040;BME280;43937;41.366;2.072;2024-03-17T05:06:41;101316.88;;;16.46;71.22
56040;BME280;43937;41.366;2.072;2024-03-17T05:09:12;101347.56;;;16.65;70.98
56040;BME280;43937;41.366;2.072;2024-03-17T05:11:38;101307.03;;;16.37;70.90
56040;BME280;43937;41.366;2.072;2024-03-17T05:14:04;101339.72;;;16.47;71.18
56040;BME280;43937;41.366;2.072;2024-03-17T05:16:29;101333.94;;;16.42;71.62
56040;BME280;43937;41.366;2.072;2024-03-17T05:18:55;101292.63;;;16.06;72.11
56040;BME280;43937;41.366;2.072;2024-03-17T05:21:21;101336.22;;;16.38;71.96
56040;BME280;43937;41.366;2.072;2024-03-17T05:23:47;101302.41;;;16.08;72.54
56040;BME280;43937;41.366;2.072;2024-03-17T05:26:14;101317.84;;;16.24;71.90
56040;BME280;43937;41.366;2.072;2024-03-17T05:28:39;101345.13;;;16.11;72.91
56040;BME280;43937;41.366;2.072;2024-03-17T05:31:05;101333.41;;;15.79;73.75
56040;BME280;43937;41.366;2.072;2024-03-17T05:33:31;101342.53;;;15.79;74.33
56040;BME280;43937;41.366;2.072;2024-03-17T05:35:58;101349.59;;;15.74;74.89
56040;BME280;43937;41.366;2.072;2024-03-17T05:38:25;101352.63;;;15.79;74.52
56040;BME280;43937;41.366;2.072;2024-03-17T05:40:58;101357.75;;;15.82;74.82
56040;BME280;43937;41.366;2.072;2024-03-17T05:43:27;101356.41;;;15.78;74.58
56040;BME280;43937;41.366;2.072;2024-03-17T05:45:57;101338.63;;;15.74;74.63
56040;BME280;43937;41.366;2.072;2024-03-17T05:48:23;101357.88;;;15.89;74.35
56040;BME280;43937;41.366;2.072;2024-03-17T05:50:52;101360.78;;;15.87;74.21
56040;BME280;43937;41.366;2.072;2024-03-17T05:53:18;101323.03;;;15.66;73.48
56040;BME280;43937;41.366;2.072;2024-03-17T05:55:44;101338.63;;;15.74;74.24
56040;BME280;43937;41.366;2.072;2024-03-17T05:58:10;101341.53;;;15.72;74.23
56040;BME280;43937;41.366;2.072;2024-03-17T06:00:38;101358.50;;;15.76;73.56
56040;BME280;43937;41.366;2.072;2024-03-17T06:03:04;101358.50;;;15.76;74.40
56040;BME280;43937;41.366;2.072;2024-03-17T06:05:38;101356.31;;;15.71;74.00
56040;BME280;43937;41.366;2.072;2024-03-17T06:08:06;101337.97;;;15.64;74.22
56040;BME280;43937;41.366;2.072;2024-03-17T06:10:34;101346.13;;;15.80;73.67
56040;BME280;43937;41.366;2.072;2024-03-17T06:13:00;101362.22;;;15.83;73.87
56040;BME280;43937;41.366;2.072;2024-03-17T06:15:26;101366.38;;;15.94;73.05
56040;BME280;43937;41.366;2.072;2024-03-17T06:17:53;101344.59;;;15.77;73.35
56040;BME280;43937;41.366;2.072;2024-03-17T06:20:22;101376.38;;;16.10;72.90
56040;BME280;43937;41.366;2.072;2024-03-17T06:22:48;101367.94;;;16.26;71.63
56040;BME280;43937;41.366;2.072;2024-03-17T06:25:14;101380.75;;;16.19;71.83
56040;BME280;43937;41.366;2.072;2024-03-17T06:27:40;101393.22;;;16.36;71.19
56040;BME280;43937;41.366;2.072;2024-03-17T06:30:06;101394.38;;;16.27;71.42
56040;BME280;43937;41.366;2.072;2024-03-17T06:32:35;101396.81;;;16.37;71.08
56040;BME280;43937;41.366;2.072;2024-03-17T06:35:04;101392.28;;;16.14;72.21
56040;BME280;43937;41.366;2.072;2024-03-17T06:37:29;101401.59;;;16.28;71.49
56040;BME280;43937;41.366;2.072;2024-03-17T06:39:55;101383.38;;;16.27;71.46
56040;BME280;43937;41.366;2.072;2024-03-17T06:42:20;101397.22;;;16.34;71.15
56040;BME280;43937;41.366;2.072;2024-03-17T06:44:46;101389.25;;;16.24;71.41
56040;BME280;43937;41.366;2.072;2024-03-17T06:47:12;101370.50;;;16.27;70.86
56040;BME280;43937;41.366;2.072;2024-03-17T06:49:37;101391.72;;;16.48;70.52
56040;BME280;43937;41.366;2.072;2024-03-17T06:52:03;101343.41;;;16.39;69.67
56040;BME280;43937;41.366;2.072;2024-03-17T06:54:28;101375.13;;;16.71;68.70
56040;BME280;43937;41.366;2.072;2024-03-17T06:56:54;101357.06;;;16.47;69.54
56040;BME280;43937;41.366;2.072;2024-03-17T06:59:19;101380.53;;;16.94;68.60
56040;BME280;43937;41.366;2.072;2024-03-17T07:01:46;101384.09;;;17.10;68.15
56040;BME280;43937;41.366;2.072;2024-03-17T07:04:12;101359.59;;;17.15;67.47
56040;BME280;43937;41.366;2.072;2024-03-17T07:06:38;101384.75;;;17.33;66.42
56040;BME280;43937;41.366;2.072;2024-03-17T07:09:03;101363.00;;;17.17;66.96
56040;BME280;43937;41.366;2.072;2024-03-17T07:11:29;101355.56;;;17.32;65.97
56040;BME280;43937;41.366;2.072;2024-03-17T07:13:54;101387.34;;;17.78;65.33
56040;BME280;43937;41.366;2.072;2024-03-17T07:16:19;101391.38;;;18.31;63.70
56040;BME280;43937;41.366;2.072;2024-03-17T07:18:47;101368.75;;;21.73;53.00
56040;BME280;43937;41.366;2.072;2024-03-17T07:21:12;101370.53;;;22.18;51.40
56040;BME280;43937;41.366;2.072;2024-03-17T07:23:38;101366.09;;;21.22;53.01
56040;BME280;43937;41.366;2.072;2024-03-17T07:26:04;101397.44;;;24.99;46.22
56040;BME280;43937;41.366;2.072;2024-03-17T07:28:30;101406.88;;;26.68;40.96
56040;BME280;43937;41.366;2.072;2024-03-17T07:30:58;101376.50;;;27.70;37.42
56040;BME280;43937;41.366;2.072;2024-03-17T07:33:24;101402.50;;;28.72;36.54
56040;BME280;43937;41.366;2.072;2024-03-17T07:35:51;101402.03;;;30.35;33.30
56040;BME280;43937;41.366;2.072;2024-03-17T07:38:17;101426.91;;;31.53;31.43
56040;BME280;43937;41.366;2.072;2024-03-17T07:40:44;101424.25;;;32.40;30.39
56040;BME280;43937;41.366;2.072;2024-03-17T07:43:10;101425.97;;;32.36;29.86
56040;BME280;43937;41.366;2.072;2024-03-17T07:45:35;101433.44;;;32.80;29.01
56040;BME280;43937;41.366;2.072;2024-03-17T07:48:01;101439.72;;;32.43;29.84
56040;BME280;43937;41.366;2.072;2024-03-17T07:50:26;101442.78;;;31.78;29.87
56040;BME280;43937;41.366;2.072;2024-03-17T07:52:52;101433.75;;;32.50;29.25
56040;BME280;43937;41.366;2.072;2024-03-17T07:55:17;101428.97;;;33.22;28.24
56040;BME280;43937;41.366;2.072;2024-03-17T07:57:43;101435.25;;;32.71;28.51
56040;BME280;43937;41.366;2.072;2024-03-17T08:00:09;101395.78;;;32.13;29.22
56040;BME280;43937;41.366;2.072;2024-03-17T08:02:44;101429.22;;;31.85;29.63
56040;BME280;43937;41.366;2.072;2024-03-17T08:05:10;101423.00;;;31.88;29.59
56040;BME280;43937;41.366;2.072;2024-03-17T08:07:35;101411.31;;;32.69;28.46
56040;BME280;43937;41.366;2.072;2024-03-17T08:10:01;101418.44;;;32.85;27.99
56040;BME280;43937;41.366;2.072;2024-03-17T08:12:29;101419.88;;;33.06;28.10
56040;BME280;43937;41.366;2.072;2024-03-17T08:14:55;101430.06;;;32.78;28.37
56040;BME280;43937;41.366;2.072;2024-03-17T08:17:21;101433.84;;;33.60;26.97
56040;BME280;43937;41.366;2.072;2024-03-17T08:19:46;101435.94;;;35.13;25.36
56040;BME280;43937;41.366;2.072;2024-03-17T08:22:13;101441.72;;;33.20;26.80
56040;BME280;43937;41.366;2.072;2024-03-17T08:24:38;101425.34;;;30.41;30.58
56040;BME280;43937;41.366;2.072;2024-03-17T08:27:04;101429.88;;;28.65;33.59
56040;BME280;43937;41.366;2.072;2024-03-17T08:29:30;101421.88;;;27.77;35.33
56040;BME280;43937;41.366;2.072;2024-03-17T08:31:55;101405.56;;;27.15;36.04
56040;BME280;43937;41.366;2.072;2024-03-17T08:34:21;101437.16;;;27.92;35.13
56040;BME280;43937;41.366;2.072;2024-03-17T08:36:46;101435.16;;;30.39;31.86
56040;BME280;43937;41.366;2.072;2024-03-17T08:39:11;101428.97;;;31.37;30.64
56040;BME280;43937;41.366;2.072;2024-03-17T08:41:37;101437.53;;;32.93;28.38
56040;BME280;43937;41.366;2.072;2024-03-17T08:44:02;101436.00;;;33.25;27.58
56040;BME280;43937;41.366;2.072;2024-03-17T08:46:29;101435.00;;;33.16;27.32
56040;BME280;43937;41.366;2.072;2024-03-17T08:48:54;101433.72;;;32.79;27.90
56040;BME280;43937;41.366;2.072;2024-03-17T08:51:21;101423.53;;;31.56;29.49
56040;BME280;43937;41.366;2.072;2024-03-17T08:53:46;101412.38;;;29.74;32.40
56040;BME280;43937;41.366;2.072;2024-03-17T08:56:12;101423.78;;;29.26;34.01
56040;BME280;43937;41.366;2.072;2024-03-17T08:58:37;101412.91;;;28.40;36.48
56040;BME280;43937;41.366;2.072;2024-03-17T09:01:04;101421.78;;;27.67;38.27
56040;BME280;43937;41.366;2.072;2024-03-17T09:03:30;101404.34;;;27.11;40.63
56040;BME280;43937;41.366;2.072;2024-03-17T09:05:55;101421.72;;;26.69;42.38
56040;BME280;43937;41.366;2.072;2024-03-17T09:08:24;101413.69;;;26.22;43.96
56040;BME280;43937;41.366;2.072;2024-03-17T09:10:52;101432.31;;;26.16;45.05
56040;BME280;43937;41.366;2.072;2024-03-17T09:13:20;101435.50;;;26.08;43.83
56040;BME280;43937;41.366;2.072;2024-03-17T09:16:00;101421.16;;;25.99;45.77
56040;BME280;43937;41.366;2.072;2024-03-17T09:20:57;101418.03;;;24.98;47.79
56040;BME280;43937;41.366;2.072;2024-03-17T09:23:23;101412.47;;;24.98;48.72
56040;BME280;43937;41.366;2.072;2024-03-17T09:26:03;101405.38;;;24.79;49.54
56040;BME280;43937;41.366;2.072;2024-03-17T09:28:29;101402.19;;;24.99;49.13
56040;BME280;43937;41.366;2.072;2024-03-17T09:30:55;101396.72;;;25.04;49.47
56040;BME280;43937;41.366;2.072;2024-03-17T09:33:22;101403.63;;;25.01;50.56
56040;BME280;43937;41.366;2.072;2024-03-17T09:36:01;101404.09;;;24.58;50.58
56040;BME280;43937;41.366;2.072;2024-03-17T09:38:27;101399.25;;;24.53;51.61
56040;BME280;43937;41.366;2.072;2024-03-17T09:40:53;101400.88;;;24.89;50.77
56040;BME280;43937;41.366;2.072;2024-03-17T09:43:22;101379.22;;;25.20;50.32
56040;BME280;43937;41.366;2.072;2024-03-17T09:45:49;101398.38;;;24.64;51.16
56040;BME280;43937;41.366;2.072;2024-03-17T09:48:17;101359.78;;;24.56;51.75
56040;BME280;43937;41.366;2.072;2024-03-17T09:50:50;101396.91;;;24.85;51.85
56040;BME280;43937;41.366;2.072;2024-03-17T09:53:25;101394.66;;;24.99;52.14
56040;BME280;43937;41.366;2.072;2024-03-17T09:55:58;101401.63;;;24.85;51.96
56040;BME280;43937;41.366;2.072;2024-03-17T09:58:23;101400.81;;;25.42;50.57
56040;BME280;43937;41.366;2.072;2024-03-17T10:00:49;101394.38;;;25.24;51.18
56040;BME280;43937;41.366;2.072;2024-03-17T10:03:43;101384.69;;;25.27;50.41
56040;BME280;43937;41.366;2.072;2024-03-17T10:06:12;101400.59;;;25.43;50.49
56040;BME280;43937;41.366;2.072;2024-03-17T10:11:07;101386.19;;;25.63;50.22
56040;BME280;43937;41.366;2.072;2024-03-17T10:13:32;101385.22;;;25.41;50.14
56040;BME280;43937;41.366;2.072;2024-03-17T10:15:58;101378.44;;;25.36;49.16
56040;BME280;43937;41.366;2.072;2024-03-17T10:18:23;101387.59;;;25.20;50.44
56040;BME280;43937;41.366;2.072;2024-03-17T10:20:49;101390.59;;;25.30;50.00
56040;BME280;43937;41.366;2.072;2024-03-17T10:23:22;101391.63;;;25.41;50.89
56040;BME280;43937;41.366;2.072;2024-03-17T10:25:47;101388.19;;;25.22;51.43
56040;BME280;43937;41.366;2.072;2024-03-17T10:28:14;101383.59;;;24.76;51.96
56040;BME280;43937;41.366;2.072;2024-03-17T10:30:41;101379.03;;;24.70;52.61
56040;BME280;43937;41.366;2.072;2024-03-17T10:33:21;101378.53;;;24.26;53.55
56040;BME280;43937;41.366;2.072;2024-03-17T10:35:48;101394.97;;;24.74;52.47
56040;BME280;43937;41.366;2.072;2024-03-17T10:38:14;101348.78;;;24.61;52.13
56040;BME280;43937;41.366;2.072;2024-03-17T10:40:40;101365.13;;;24.46;53.27
56040;BME280;43937;41.366;2.072;2024-03-17T10:43:06;101382.22;;;24.90;53.38
56040;BME280;43937;41.366;2.072;2024-03-17T10:45:32;101381.19;;;24.20;53.76
56040;BME280;43937;41.366;2.072;2024-03-17T10:48:06;101380.72;;;24.23;54.13
56040;BME280;43937;41.366;2.072;2024-03-17T10:50:37;101378.53;;;24.73;53.92
56040;BME280;43937;41.366;2.072;2024-03-17T10:53:04;101381.63;;;24.88;53.22
56040;BME280;43937;41.366;2.072;2024-03-17T10:55:43;101352.28;;;24.57;52.96
56040;BME280;43937;41.366;2.072;2024-03-17T10:58:28;101386.88;;;24.73;52.58
56040;BME280;43937;41.366;2.072;2024-03-17T11:01:00;101359.06;;;24.37;53.43
56040;BME280;43937;41.366;2.072;2024-03-17T11:03:30;101356.75;;;23.75;55.28
56040;BME280;43937;41.366;2.072;2024-03-17T11:05:57;101365.59;;;23.54;56.46
56040;BME280;43937;41.366;2.072;2024-03-17T11:08:23;101386.03;;;24.37;54.76
56040;BME280;43937;41.366;2.072;2024-03-17T11:10:51;101380.00;;;24.40;53.73
56040;BME280;43937;41.366;2.072;2024-03-17T11:13:29;101353.97;;;24.22;55.15
56040;BME280;43937;41.366;2.072;2024-03-17T11:15:56;101372.59;;;23.87;55.97
56040;BME280;43937;41.366;2.072;2024-03-17T11:21:06;101340.81;;;24.06;54.30
56040;BME280;43937;41.366;2.072;2024-03-17T11:23:42;101328.44;;;23.67;55.36
56040;BME280;43937;41.366;2.072;2024-03-17T11:26:08;101360.34;;;23.34;56.30
56040;BME280;43937;41.366;2.072;2024-03-17T11:31:40;101359.16;;;23.72;55.87
56040;BME280;43937;41.366;2.072;2024-03-17T11:34:29;101369.94;;;23.50;55.91
56040;BME280;43937;41.366;2.072;2024-03-17T11:36:56;101361.97;;;23.95;54.93
56040;BME280;43937;41.366;2.072;2024-03-17T11:39:48;101364.88;;;23.47;56.20
56040;BME280;43937;41.366;2.072;2024-03-17T11:42:21;101372.03;;;23.24;56.66
56040;BME280;43937;41.366;2.072;2024-03-17T11:44:58;101359.69;;;23.20;57.25
56040;BME280;43937;41.366;2.072;2024-03-17T11:47:33;101364.78;;;23.23;57.14
56040;BME280;43937;41.366;2.072;2024-03-17T11:50:02;101345.00;;;23.31;56.72
56040;BME280;43937;41.366;2.072;2024-03-17T11:52:28;101368.75;;;23.46;55.80
56040;BME280;43937;41.366;2.072;2024-03-17T11:54:53;101343.16;;;23.55;55.03
56040;BME280;43937;41.366;2.072;2024-03-17T11:57:25;101304.31;;;22.77;57.97
56040;BME280;43937;41.366;2.072;2024-03-17T11:59:52;101353.97;;;23.34;56.54
56040;BME280;43937;41.366;2.072;2024-03-17T12:02:26;101355.81;;;23.09;57.73
56040;BME280;43937;41.366;2.072;2024-03-17T12:05:01;101353.97;;;23.34;56.54
56040;BME280;43937;41.366;2.072;2024-03-17T12:07:27;101341.41;;;22.64;58.49
56040;BME280;43937;41.366;2.072;2024-03-17T12:09:56;101332.97;;;23.07;57.46
56040;BME280;43937;41.366;2.072;2024-03-17T12:12:23;101334.22;;;22.75;58.27
56040;BME280;43937;41.366;2.072;2024-03-17T12:14:50;101328.28;;;22.71;58.21
56040;BME280;43937;41.366;2.072;2024-03-17T12:17:23;101328.72;;;22.86;57.21
56040;BME280;43937;41.366;2.072;2024-03-17T12:19:49;101322.28;;;22.74;57.35
56040;BME280;43937;41.366;2.072;2024-03-17T12:22:18;101326.53;;;22.77;57.92
56040;BME280;43937;41.366;2.072;2024-03-17T12:24:48;101316.63;;;22.99;57.53
56040;BME280;43937;41.366;2.072;2024-03-17T12:27:19;101320.25;;;22.51;58.44
56040;BME280;43937;41.366;2.072;2024-03-17T12:29:45;101327.31;;;22.47;58.76
56040;BME280;43937;41.366;2.072;2024-03-17T12:34:53;101315.91;;;22.37;58.66
56040;BME280;43937;41.366;2.072;2024-03-17T12:37:23;101273.78;;;22.28;58.54
56040;BME280;43937;41.366;2.072;2024-03-17T12:39:50;101321.72;;;22.10;59.79
56040;BME280;43937;41.366;2.072;2024-03-17T12:42:22;101288.59;;;21.97;59.81
56040;BME280;43937;41.366;2.072;2024-03-17T12:45:09;101321.53;;;22.30;59.18
56040;BME280;43937;41.366;2.072;2024-03-17T12:47:35;101303.19;;;21.36;61.85
56040;BME280;43937;41.366;2.072;2024-03-17T12:50:02;101285.81;;;21.97;59.34
56040;BME280;43937;41.366;2.072;2024-03-17T12:52:32;101308.50;;;21.87;59.74
56040;BME280;43937;41.366;2.072;2024-03-17T12:57:52;101292.63;;;21.19;62.56
56040;BME280;43937;41.366;2.072;2024-03-17T13:00:37;101286.09;;;21.45;61.67
56040;BME280;43937;41.366;2.072;2024-03-17T13:03:03;101295.84;;;21.48;60.98
56040;BME280;43937;41.366;2.072;2024-03-17T13:05:30;101290.28;;;21.48;61.48
56040;BME280;43937;41.366;2.072;2024-03-17T13:07:56;101266.75;;;21.64;60.93